Time;durP1;ratioP1;P1;durP2;ratioP2;P2;SDS_P1;SDS_P2;PMS_P1;PMS_P2;Temp;Humidity;BMP_temperature;BMP_pressure;BME280_temperature;BME280_humidity;BME280_pressure;Samples;Min_cycle;Max_cycle;Signal;HPM_P1;HPM_P2
2022/03/18 00:02:21;;;;;;;;;8.00;7.00;;;;;20.15;35.75;103154.94;5076946;27;45383;-55
2022/03/18 00:04:48;;;;;;;;;7.25;7.25;;;;;20.13;35.44;103147.06;5076915;27;45642;-50
2022/03/18 00:07:14;;;;;;;;;5.50;5.00;;;;;20.12;35.94;103152.38;5076556;27;46234;-52
2022/03/18 00:09:41;;;;;;;;;9.00;7.50;;;;;20.11;35.72;103153.25;5076697;27;45687;-51
2022/03/18 00:12:11;;;;;;;;;8.00;8.00;;;;;20.11;36.06;103145.38;5076731;27;45741;-51
2022/03/18 00:14:39;;;;;;;;;8.75;7.00;;;;;20.10;36.10;103151.53;5076676;27;45573;-51
2022/03/18 00:17:08;;;;;;;;;8.00;6.00;;;;;20.10;35.65;103143.63;5076330;27;46188;-51
2022/03/18 00:19:36;;;;;;;;;7.25;5.25;;;;;20.08;36.08;103147.16;5076369;27;45859;-51
2022/03/18 00:22:02;;;;;;;;;7.00;7.00;;;;;20.08;35.50;103149.78;5076845;27;45369;-56
2022/03/18 00:24:31;;;;;;;;;9.00;8.00;;;;;20.07;35.76;103145.41;5076895;27;45319;-52
2022/03/18 00:26:57;;;;;;;;;4.75;4.75;;;;;20.05;36.04;103136.66;5076269;27;45416;-51
2022/03/18 00:29:22;;;;;;;;;7.25;7.25;;;;;20.06;36.00;103146.28;5076420;27;45326;-52
2022/03/18 00:31:48;;;;;;;;;5.00;5.00;;;;;20.06;35.79;103151.56;5075295;28;45423;-56
2022/03/18 00:34:13;;;;;;;;;8.75;7.50;;;;;20.05;35.91;103151.59;5076566;27;45516;-52
2022/03/18 00:36:38;;;;;;;;;8.00;8.00;;;;;20.02;36.06;103155.13;5076026;27;55435;-53
2022/03/18 00:39:05;;;;;;;;;6.25;6.25;;;;;20.05;35.63;103164.75;5075103;28;45416;-48
2022/03/18 00:41:31;;;;;;;;;6.00;5.50;;;;;20.03;35.46;103148.13;5076563;27;45331;-50
2022/03/18 00:43:56;;;;;;;;;2.75;2.75;;;;;20.03;35.65;103156.88;5076510;27;45486;-51
2022/03/18 00:46:23;;;;;;;;;7.25;6.50;;;;;20.03;35.75;103164.75;5075958;27;47034;-51
2022/03/18 00:54:17;;;;;;;;;6.00;6.00;;;;;20.01;35.61;103163.06;5076374;28;45371;-53
2022/03/18 00:56:43;;;;;;;;;6.25;6.25;;;;;20.00;35.23;103159.56;5075915;27;46111;-52
2022/03/18 00:59:08;;;;;;;;;7.50;7.00;;;;;19.99;35.93;103157.84;5077901;27;45382;-52
2022/03/18 01:01:33;;;;;;;;;8.25;7.00;;;;;19.99;35.60;103163.09;5080146;27;45396;-55
2022/03/18 01:03:59;;;;;;;;;6.00;6.00;;;;;19.99;35.70;103154.31;5078658;28;45430;-52
2022/03/18 01:06:24;;;;;;;;;6.25;6.25;;;;;19.98;35.82;103156.09;5079551;27;45389;-49
2022/03/18 01:08:49;;;;;;;;;5.00;5.00;;;;;19.97;35.78;103164.88;5079459;27;45472;-50
2022/03/18 01:11:15;;;;;;;;;5.50;5.50;;;;;19.96;35.47;103152.59;5079615;27;45566;-49
2022/03/18 01:13:40;;;;;;;;;9.50;7.00;;;;;19.96;35.36;103156.97;5079394;27;45479;-53
2022/03/18 01:16:06;;;;;;;;;7.25;7.25;;;;;19.96;35.49;103160.50;5079175;27;45398;-46
2022/03/18 01:18:31;;;;;;;;;6.25;5.00;;;;;19.94;35.39;103159.66;5079484;27;45310;-49
2022/03/18 01:20:56;;;;;;;;;7.75;6.75;;;;;19.93;35.55;103155.28;5079244;27;45223;-53
2022/03/18 01:23:23;;;;;;;;;6.50;6.50;;;;;19.94;35.21;103164.91;5079554;27;45169;-48
2022/03/18 01:25:48;;;;;;;;;6.00;4.75;;;;;19.95;35.53;103165.81;5078868;27;45261;-50
2022/03/18 01:28:13;;;;;;;;;5.50;5.50;;;;;19.93;35.75;103161.44;5079234;27;45279;-52
2022/03/18 01:30:39;;;;;;;;;8.25;6.00;;;;;19.93;35.82;103165.81;5079270;27;45239;-51
2022/03/18 01:33:05;;;;;;;;;4.50;4.50;;;;;19.92;35.36;103171.97;5079817;27;45668;-52
2022/03/18 01:35:30;;;;;;;;;7.50;6.00;;;;;19.91;35.53;103171.09;5079014;27;46373;-54
2022/03/18 01:37:55;;;;;;;;;7.50;6.00;;;;;19.91;35.21;103173.75;5079009;27;45877;-53
2022/03/18 01:40:21;;;;;;;;;8.75;8.00;;;;;19.90;35.63;103172.00;5079015;27;45970;-56
2022/03/18 01:42:47;;;;;;;;;7.00;6.00;;;;;19.89;35.53;103170.25;5079297;27;45636;-55
2022/03/18 01:45:13;;;;;;;;;6.50;6.50;;;;;19.88;35.24;103170.28;5078894;28;45414;-50
2022/03/18 01:47:42;;;;;;;;;8.50;5.75;;;;;19.88;35.68;103165.88;5078856;27;45291;-50
2022/03/18 01:50:15;;;;;;;;;5.50;5.50;;;;;19.88;35.26;103171.16;5078871;27;45236;-53
2022/03/18 01:52:42;;;;;;;;;6.00;6.00;;;;;19.88;35.31;103176.41;5079193;27;45366;-54
2022/03/18 01:55:07;;;;;;;;;7.50;6.50;;;;;19.88;35.28;103175.56;5079001;27;46182;-47
2022/03/18 01:57:33;;;;;;;;;6.00;6.00;;;;;19.87;35.58;103176.44;5079003;27;45275;-53
2022/03/18 01:59:59;;;;;;;;;6.25;5.00;;;;;19.86;35.82;103178.19;5078704;27;45212;-52
2022/03/18 02:02:25;;;;;;;;;5.00;5.00;;;;;19.86;35.32;103172.06;5078959;27;45452;-51
2022/03/18 02:04:51;;;;;;;;;8.00;8.00;;;;;19.85;35.72;103171.16;5078508;27;45469;-55
2022/03/18 02:07:17;;;;;;;;;9.00;9.00;;;;;19.85;35.26;103171.16;5077282;27;45485;-51
2022/03/18 02:09:44;;;;;;;;;7.00;4.75;;;;;19.85;35.69;103175.56;5077060;28;45743;-50
2022/03/18 02:12:11;;;;;;;;;9.00;7.00;;;;;19.84;35.35;103177.34;5078498;27;45272;-49
2022/03/18 02:14:45;;;;;;;;;4.25;4.25;;;;;19.83;35.63;103166.81;5078466;27;46236;-51
2022/03/18 02:17:12;;;;;;;;;6.50;6.50;;;;;19.84;35.36;103173.81;5078256;27;45384;-57
2022/03/18 02:19:40;;;;;;;;;7.75;7.00;;;;;19.83;35.65;103172.06;5078539;27;45508;-56
2022/03/18 02:22:13;;;;;;;;;6.50;6.00;;;;;19.84;35.68;103168.56;5078791;27;45505;-55
2022/03/18 02:24:40;;;;;;;;;8.25;7.00;;;;;19.82;35.30;103175.59;5078611;27;46225;-53
2022/03/18 02:27:06;;;;;;;;;8.50;7.00;;;;;19.81;35.63;103172.09;5078490;27;45342;-50
2022/03/18 02:29:32;;;;;;;;;6.50;5.75;;;;;19.82;35.25;103178.22;5078375;27;45415;-57
2022/03/18 02:31:57;;;;;;;;;8.00;6.50;;;;;19.81;35.45;103185.28;5078431;27;45476;-54
2022/03/18 02:34:23;;;;;;;;;9.00;7.00;;;;;19.81;35.77;103179.13;5078033;27;46381;-53
2022/03/18 02:36:49;;;;;;;;;6.50;5.75;;;;;19.81;35.71;103176.47;5078091;27;45406;-48
2022/03/18 02:39:15;;;;;;;;;7.50;7.50;;;;;19.78;35.27;103170.41;5077012;28;45868;-50
2022/03/18 02:41:41;;;;;;;;;6.75;6.75;;;;;19.80;35.72;103166.84;5078388;28;45349;-51
2022/03/18 02:44:07;;;;;;;;;7.50;6.00;;;;;19.80;35.63;103167.75;5078158;27;46274;-54
2022/03/18 02:46:32;;;;;;;;;7.25;5.25;;;;;19.78;35.66;103159.88;5077963;27;45344;-55
2022/03/18 02:49:01;;;;;;;;;6.00;6.00;;;;;19.77;35.70;103163.41;5078096;27;45468;-54
2022/03/18 02:51:28;;;;;;;;;6.50;6.50;;;;;19.77;35.40;103160.75;5078191;28;45404;-53
2022/03/18 02:53:54;;;;;;;;;5.00;5.00;;;;;19.76;35.26;103166.91;5077675;27;46664;-56
2022/03/18 02:56:20;;;;;;;;;14.00;8.75;;;;;19.76;35.31;103166.91;5077972;27;45487;-55
2022/03/18 02:58:46;;;;;;;;;7.00;7.00;;;;;19.75;35.57;103170.44;5077866;27;45286;-54
2022/03/18 03:01:12;;;;;;;;;9.00;7.00;;;;;19.76;35.24;103172.19;5077940;27;45621;-54
2022/03/18 03:03:37;;;;;;;;;2.75;2.75;;;;;19.74;35.40;103163.44;5078005;27;46380;-55
2022/03/18 03:08:57;;;;;;;;;7.75;7.75;;;;;19.74;35.54;103173.97;5040038;27;45492;-53
2022/03/18 03:11:22;;;;;;;;;6.50;6.50;;;;;19.74;35.37;103173.97;5077851;27;45257;-52
2022/03/18 03:13:49;;;;;;;;;6.25;6.25;;;;;19.72;35.43;103169.63;5077366;27;45742;-53
2022/03/18 03:16:14;;;;;;;;;7.25;7.00;;;;;19.73;35.62;103180.13;5077257;27;45752;-55
2022/03/18 03:18:40;;;;;;;;;5.75;5.75;;;;;19.73;35.40;103181.88;5078059;27;45418;-52
2022/03/18 03:21:05;;;;;;;;;3.50;3.25;;;;;19.72;35.26;103178.38;5077539;27;45369;-53
2022/03/18 03:23:30;;;;;;;;;5.00;5.00;;;;;19.72;35.60;103186.25;5076222;27;45430;-53
2022/03/18 03:25:56;;;;;;;;;5.50;5.25;;;;;19.72;35.29;103194.16;5076985;27;52531;-51
2022/03/18 03:28:22;;;;;;;;;6.25;6.25;;;;;19.71;35.39;103197.69;5077307;27;45287;-50
2022/03/18 03:30:48;;;;;;;;;6.50;6.25;;;;;19.70;35.42;103203.81;5077612;27;45279;-52
2022/03/18 03:33:14;;;;;;;;;7.00;7.00;;;;;19.71;35.63;103200.31;5077175;27;45440;-51
2022/03/18 03:35:40;;;;;;;;;6.75;6.75;;;;;19.71;35.75;103204.72;5077547;28;45381;-51
2022/03/18 03:38:06;;;;;;;;;8.75;5.25;;;;;19.70;35.34;103195.06;5077285;27;45294;-51
2022/03/18 03:40:33;;;;;;;;;8.00;8.00;;;;;19.70;35.89;103206.47;5077470;27;45168;-51
2022/03/18 03:42:59;;;;;;;;;6.50;6.50;;;;;19.70;35.50;103201.19;5092654;27;47261;-54
2022/03/18 03:45:25;;;;;;;;;7.00;7.00;;;;;19.68;35.76;103189.81;5077031;27;45203;-54
2022/03/18 03:47:51;;;;;;;;;6.75;6.75;;;;;19.69;35.53;103196.81;5077045;27;45473;-55
2022/03/18 03:50:17;;;;;;;;;6.50;5.75;;;;;19.68;35.42;103195.09;5077281;27;45361;-53
2022/03/18 03:52:43;;;;;;;;;5.25;5.25;;;;;19.67;35.38;103192.47;5076959;27;47009;-45
2022/03/18 03:55:10;;;;;;;;;8.50;7.75;;;;;19.67;35.45;103197.75;5077220;27;45370;-50
2022/03/18 03:57:36;;;;;;;;;6.75;6.75;;;;;19.67;35.51;103197.75;5077037;27;45240;-50
2022/03/18 04:00:03;;;;;;;;;7.00;7.00;;;;;19.66;35.46;103198.63;5076996;27;45507;-46
2022/03/18 04:02:28;;;;;;;;;0.00;0.00;;;;;19.66;35.74;103201.25;5076664;27;45282;-52
2022/03/18 04:04:54;;;;;;;;;6.25;6.00;;;;;19.66;35.82;103207.41;5076768;27;45225;-52
2022/03/18 04:07:19;;;;;;;;;9.00;7.25;;;;;19.66;35.44;103215.31;5076881;27;45291;-53
2022/03/18 04:09:48;;;;;;;;;7.00;7.00;;;;;19.66;35.10;103220.56;5076979;27;45306;-53
2022/03/18 04:12:13;;;;;;;;;7.00;7.00;;;;;19.65;35.29;103226.72;5076762;27;46384;-52
2022/03/18 04:14:38;;;;;;;;;6.00;6.00;;;;;19.64;35.17;103224.97;5076454;27;45434;-53
2022/03/18 04:17:04;;;;;;;;;6.75;6.75;;;;;19.65;35.86;103221.47;5076788;27;45445;-53
2022/03/18 04:19:29;;;;;;;;;6.50;6.50;;;;;19.64;35.76;103222.34;5076744;27;45303;-55
2022/03/18 04:21:55;;;;;;;;;8.00;8.00;;;;;19.63;35.83;103220.59;5076401;27;45345;-51
2022/03/18 04:24:20;;;;;;;;;8.75;7.25;;;;;19.63;35.59;103215.34;5076532;28;45298;-51
2022/03/18 04:26:46;;;;;;;;;7.00;7.00;;;;;19.62;35.16;103222.34;5076500;27;45259;-54
2022/03/18 04:29:12;;;;;;;;;8.00;6.25;;;;;19.61;35.30;103225.00;5077076;27;45557;-54
2022/03/18 04:31:38;;;;;;;;;8.25;7.00;;;;;19.61;35.54;103236.41;5076387;27;47055;-49
2022/03/18 04:34:04;;;;;;;;;7.50;5.75;;;;;19.61;35.57;103241.69;5078038;27;45239;-55
2022/03/18 04:36:29;;;;;;;;;7.00;6.00;;;;;19.62;35.25;103237.28;5080161;27;45185;-50
2022/03/18 04:38:55;;;;;;;;;9.00;7.00;;;;;19.60;35.73;103244.31;5080198;28;45485;-52
2022/03/18 04:41:20;;;;;;;;;8.25;6.75;;;;;19.61;35.13;103253.94;5079696;27;45912;-53
2022/03/18 04:43:46;;;;;;;;;5.50;5.50;;;;;19.60;35.70;103249.56;5079868;27;45439;-49
2022/03/18 04:46:11;;;;;;;;;6.00;6.00;;;;;19.59;35.41;103253.09;5080134;27;45314;-54
2022/03/18 04:48:36;;;;;;;;;7.00;7.00;;;;;19.59;35.72;103259.25;5080087;27;45869;-52
2022/03/18 04:51:02;;;;;;;;;6.75;5.75;;;;;19.59;35.48;103255.72;5079665;27;45359;-56
2022/03/18 04:53:27;;;;;;;;;8.00;8.00;;;;;19.58;35.47;103253.97;5079729;27;45339;-54
2022/03/18 04:55:53;;;;;;;;;6.00;5.75;;;;;19.59;35.14;103258.34;5079655;27;45320;-54
2022/03/18 04:58:18;;;;;;;;;7.50;6.75;;;;;19.58;35.53;103251.34;5080056;27;45535;-54
2022/03/18 05:00:43;;;;;;;;;6.75;6.75;;;;;19.57;35.41;103252.22;5079763;27;45527;-48
2022/03/18 05:03:11;;;;;;;;;8.00;6.25;;;;;19.56;35.73;103253.16;5079740;27;45423;-55
2022/03/18 05:05:38;;;;;;;;;5.75;5.75;;;;;19.57;35.35;103252.22;5079625;27;45358;-55
2022/03/18 05:08:03;;;;;;;;;7.00;7.00;;;;;19.56;35.29;103250.53;5078574;28;45374;-52
2022/03/18 05:10:29;;;;;;;;;6.50;6.00;;;;;19.55;35.15;103256.66;5079297;27;45227;-55
2022/03/18 05:12:55;;;;;;;;;12.00;11.50;;;;;19.54;34.93;103255.78;5079451;27;45251;-53
2022/03/18 05:15:21;;;;;;;;;8.50;7.75;;;;;19.52;35.22;103275.97;5078158;28;45537;-55
2022/03/18 05:17:54;;;;;;;;;0.75;0.75;;;;;19.52;35.34;103288.25;5080155;27;45619;-54
2022/03/18 05:20:20;;;;;;;;;8.25;8.00;;;;;19.51;35.18;103286.53;5079223;27;46065;-55
2022/03/18 05:22:45;;;;;;;;;8.50;8.00;;;;;19.48;35.09;103282.16;5079621;27;45382;-51
2022/03/18 05:25:13;;;;;;;;;9.50;8.00;;;;;19.46;35.39;103279.53;5079454;27;45323;-52
2022/03/18 05:27:42;;;;;;;;;9.00;9.00;;;;;19.45;34.91;103287.47;5079579;27;45370;-54
2022/03/18 05:30:11;;;;;;;;;8.50;8.50;;;;;19.42;35.25;103275.22;5079255;27;46071;-53
2022/03/18 05:32:36;;;;;;;;;12.75;11.50;;;;;19.43;35.12;103282.22;5079287;27;45390;-53
2022/03/18 05:35:01;;;;;;;;;12.75;12.75;;;;;19.42;35.15;103284.84;5079318;27;45354;-52
2022/03/18 05:37:27;;;;;;;;;15.00;15.00;;;;;19.40;34.90;103289.28;5079419;27;45642;-52
2022/03/18 05:39:52;;;;;;;;;18.00;18.00;;;;;19.38;35.06;103286.66;5078977;27;45636;-54
2022/03/18 05:42:18;;;;;;;;;18.33;18.00;;;;;19.38;35.17;103298.94;5079082;27;51116;-54
2022/03/18 05:44:43;;;;;;;;;29.50;26.00;;;;;19.38;34.88;103301.59;5078753;27;45371;-51
2022/03/18 05:47:09;;;;;;;;;31.67;28.67;;;;;19.34;34.24;103290.22;5077666;27;45324;-52
2022/03/18 05:49:35;;;;;;;;;29.25;27.00;;;;;19.31;34.69;103291.09;5078724;27;45914;-51
2022/03/18 05:52:00;;;;;;;;;33.25;30.75;;;;;19.29;34.44;103292.88;5077558;27;45206;-54
2022/03/18 05:54:26;;;;;;;;;30.25;28.25;;;;;19.27;34.08;103294.69;5079077;27;45291;-52
2022/03/18 05:56:54;;;;;;;;;34.25;31.50;;;;;19.24;34.25;103289.44;5079046;27;45616;-52
2022/03/18 05:59:22;;;;;;;;;33.75;29.50;;;;;19.23;34.50;103286.84;5078833;27;45492;-51
2022/03/18 06:01:47;;;;;;;;;32.50;30.00;;;;;19.20;34.14;103290.34;5077643;28;45368;-51
2022/03/18 06:04:14;;;;;;;;;28.00;27.50;;;;;19.19;34.42;103287.75;5079039;27;45453;-47
2022/03/18 06:06:42;;;;;;;;;36.00;30.75;;;;;19.18;34.12;103292.16;5078845;27;45876;-47
2022/03/18 06:11:51;;;;;;;;;26.00;25.00;;;;;19.12;34.33;103300.09;5078476;28;45306;-50
2022/03/18 06:14:19;;;;;;;;;33.25;30.50;;;;;19.12;34.06;103305.34;5078905;27;45308;-53
2022/03/18 06:16:49;;;;;;;;;30.00;28.25;;;;;19.10;34.08;103310.63;5078875;27;45477;-51
2022/03/18 06:19:16;;;;;;;;;8.50;7.00;;;;;19.08;33.97;103311.50;5078386;27;45991;-54
2022/03/18 06:21:41;;;;;;;;;26.25;26.25;;;;;19.07;33.75;103313.28;5078470;27;45731;-52
2022/03/18 06:24:07;;;;;;;;;32.00;27.50;;;;;19.07;34.16;103312.41;5078728;27;45835;-55
2022/03/18 06:26:34;;;;;;;;;29.50;27.00;;;;;19.04;34.04;103305.41;5078695;27;45444;-53
2022/03/18 06:28:59;;;;;;;;;26.50;24.75;;;;;19.04;33.85;103317.69;5076733;27;45368;-52
2022/03/18 06:31:25;;;;;;;;;23.50;22.50;;;;;19.00;34.01;103301.09;5078217;27;45209;-52
2022/03/18 06:33:50;;;;;;;;;28.50;25.25;;;;;19.00;33.72;103311.59;5078712;27;45343;-56
2022/03/18 06:36:16;;;;;;;;;27.00;25.25;;;;;18.98;34.04;103314.22;5078458;27;45452;-53
2022/03/18 06:38:41;;;;;;;;;25.00;22.75;;;;;18.98;33.46;103318.63;5076782;27;46037;-55
2022/03/18 06:41:10;;;;;;;;;21.25;21.00;;;;;18.97;33.53;103314.25;5078196;27;45779;-56
2022/03/18 06:43:35;;;;;;;;;24.00;22.75;;;;;18.96;33.74;103315.13;5078382;27;45280;-55
2022/03/18 06:46:02;;;;;;;;;20.00;20.00;;;;;18.94;33.26;103324.78;5078342;27;45501;-53
2022/03/18 06:48:27;;;;;;;;;22.75;20.75;;;;;18.94;33.87;103322.16;5077922;27;46239;-51
2022/03/18 06:50:53;;;;;;;;;24.50;22.50;;;;;18.92;33.67;103321.25;5078060;27;45293;-52
2022/03/18 06:53:18;;;;;;;;;21.75;19.25;;;;;18.91;33.49;103314.25;5078472;27;45252;-50
2022/03/18 06:55:44;;;;;;;;;26.00;23.25;;;;;18.91;33.42;103309.00;5078271;27;45193;-51
2022/03/18 06:58:09;;;;;;;;;27.25;21.75;;;;;18.92;33.47;103303.75;5077600;27;46114;-54
2022/03/18 07:00:39;;;;;;;;;22.00;22.00;;;;;18.93;33.81;103304.63;5093423;27;45341;-53
2022/03/18 07:03:05;;;;;;;;;20.50;17.75;;;;;18.94;33.65;103303.75;5078004;27;45406;-55
2022/03/18 07:05:32;;;;;;;;;21.25;18.25;;;;;18.95;33.66;103297.63;5078058;27;45485;-52
2022/03/18 07:07:57;;;;;;;;;21.25;17.75;;;;;18.96;33.70;103315.13;5077608;27;45243;-55
2022/03/18 07:10:23;;;;;;;;;19.00;17.75;;;;;18.97;33.87;103311.63;5076578;27;45236;-55
2022/03/18 07:12:48;;;;;;;;;21.00;18.50;;;;;18.97;33.93;103311.63;5078166;27;45370;-55
2022/03/18 07:15:13;;;;;;;;;20.50;18.00;;;;;18.99;33.83;103317.75;5077457;27;45130;-55
2022/03/18 07:20:26;;;;;;;;;18.25;17.50;;;;;18.99;33.70;103317.75;5077698;28;45872;-54
2022/03/18 07:23:08;;;;;;;;;16.50;16.50;;;;;19.00;34.05;103314.22;5078030;27;45439;-55
2022/03/18 07:25:45;;;;;;;;;15.75;13.25;;;;;19.02;34.16;103315.06;5077909;28;45300;-54
2022/03/18 07:28:12;;;;;;;;;16.50;15.25;;;;;19.03;34.16;103311.56;5077198;27;46210;-58
2022/03/18 07:30:39;;;;;;;;;17.75;14.25;;;;;19.04;34.11;103315.94;5077218;27;45299;-57
2022/03/18 07:33:05;;;;;;;;;19.25;15.00;;;;;19.05;33.91;103317.69;5077430;27;45512;-56
2022/03/18 07:35:32;;;;;;;;;18.75;12.75;;;;;19.07;34.12;103320.31;5077598;27;45236;-56
2022/03/18 07:37:57;;;;;;;;;15.25;15.00;;;;;19.08;34.38;103322.03;5093012;27;47996;-56
2022/03/18 07:40:23;;;;;;;;;14.25;14.25;;;;;19.08;34.23;103308.88;5077308;28;45477;-55
2022/03/18 07:42:53;;;;;;;;;14.00;12.00;;;;;19.09;34.38;103311.50;5077458;27;45225;-54
2022/03/18 07:45:21;;;;;;;;;16.75;15.25;;;;;19.08;34.42;103312.41;5077512;27;45349;-55
2022/03/18 07:47:49;;;;;;;;;12.50;12.50;;;;;19.09;34.22;103314.13;5077128;27;46157;-53
2022/03/18 07:50:20;;;;;;;;;15.00;13.00;;;;;19.08;34.06;103315.03;5077215;27;45827;-56
2022/03/18 07:52:55;;;;;;;;;14.25;13.50;;;;;19.10;33.82;103328.13;5077144;27;45402;-56
2022/03/18 07:55:24;;;;;;;;;10.50;10.50;;;;;19.09;33.91;103319.41;5077754;27;45386;-56
2022/03/18 07:57:51;;;;;;;;;11.75;9.50;;;;;19.08;33.99;103320.28;5076869;27;45284;-54
2022/03/18 08:00:17;;;;;;;;;12.50;10.25;;;;;19.09;33.81;103326.41;5076905;27;45409;-53
2022/03/18 08:02:44;;;;;;;;;11.75;11.75;;;;;19.09;33.86;103326.41;5077148;27;45471;-52
2022/03/18 08:05:11;;;;;;;;;11.50;10.75;;;;;19.09;34.03;103329.03;5077248;27;45465;-51
2022/03/18 08:07:37;;;;;;;;;10.75;10.75;;;;;19.09;33.89;103334.28;5076188;28;47033;-49
2022/03/18 08:10:03;;;;;;;;;10.25;9.75;;;;;19.08;33.49;103322.91;5076434;27;45251;-56
2022/03/18 08:12:29;;;;;;;;;12.50;12.50;;;;;19.07;33.48;103336.94;5076889;27;45378;-56
2022/03/18 08:14:56;;;;;;;;;10.00;8.25;;;;;19.07;33.63;103334.31;5077290;27;45450;-55
2022/03/18 08:17:22;;;;;;;;;10.25;8.00;;;;;19.07;33.70;103334.31;5077054;28;45484;-56
2022/03/18 08:19:48;;;;;;;;;8.50;7.00;;;;;19.07;33.65;103333.44;5058285;28;45618;-55
2022/03/18 08:22:16;;;;;;;;;11.75;9.00;;;;;19.07;33.32;103334.31;5076759;27;45475;-54
2022/03/18 08:24:42;;;;;;;;;14.75;11.00;;;;;19.06;33.37;103337.81;5077061;27;45544;-57
2022/03/18 08:27:07;;;;;;;;;10.75;9.00;;;;;19.05;33.46;103348.34;5076461;27;46964;-55
2022/03/18 08:29:32;;;;;;;;;9.75;8.75;;;;;19.06;33.50;103348.34;5076584;27;45274;-56
2022/03/18 08:31:58;;;;;;;;;10.75;7.25;;;;;19.05;33.49;103343.97;5076595;27;45259;-56
2022/03/18 08:34:23;;;;;;;;;9.00;8.00;;;;;19.05;33.24;103346.59;5077127;27;45437;-55
2022/03/18 08:36:49;;;;;;;;;8.00;8.00;;;;;19.06;33.50;103350.97;5076412;27;45608;-52
2022/03/18 08:39:14;;;;;;;;;10.00;10.00;;;;;19.05;33.30;103351.84;5076326;27;45351;-56
2022/03/18 08:41:40;;;;;;;;;9.00;9.00;;;;;19.06;33.36;103345.69;5074836;28;45868;-51
2022/03/18 08:44:05;;;;;;;;;8.75;7.75;;;;;19.07;33.02;103350.06;5076766;27;45527;-57
2022/03/18 08:46:31;;;;;;;;;8.00;7.50;;;;;19.05;33.19;103336.06;5074924;28;47667;-54
2022/03/18 08:48:57;;;;;;;;;11.00;8.25;;;;;19.03;32.82;103348.34;5076671;27;45444;-55
2022/03/18 08:51:24;;;;;;;;;9.50;7.00;;;;;19.05;32.82;103345.72;5075126;28;45443;-54
2022/03/18 08:53:49;;;;;;;;;8.00;7.25;;;;;19.05;32.83;103337.84;5076590;27;45459;-54
2022/03/18 08:56:14;;;;;;;;;6.75;6.50;;;;;19.04;32.79;103336.97;5076132;27;45614;-56
2022/03/18 08:58:40;;;;;;;;;10.00;7.75;;;;;19.05;32.83;103341.34;5076232;27;45387;-55
2022/03/18 09:01:05;;;;;;;;;6.25;5.75;;;;;19.04;32.77;103339.59;5074982;28;45422;-56
2022/03/18 09:03:31;;;;;;;;;8.25;6.75;;;;;19.06;33.23;103342.22;5076564;27;45256;-50
2022/03/18 09:05:56;;;;;;;;;7.50;7.50;;;;;19.06;33.14;103342.22;5076256;27;45266;-58
2022/03/18 09:08:21;;;;;;;;;8.75;6.00;;;;;19.07;32.99;103339.56;5076096;27;45326;-54
2022/03/18 09:10:47;;;;;;;;;9.50;6.75;;;;;19.09;32.82;103345.69;5076176;27;45336;-53
2022/03/18 09:13:12;;;;;;;;;7.75;6.00;;;;;19.10;32.85;103343.91;5076188;27;45315;-54
2022/03/18 09:15:38;;;;;;;;;6.75;5.50;;;;;19.12;33.25;103350.94;5075628;28;45321;-55
2022/03/18 09:18:03;;;;;;;;;6.50;5.75;;;;;19.14;33.38;103338.59;5075909;27;45209;-53
2022/03/18 09:20:29;;;;;;;;;7.00;7.00;;;;;19.15;33.42;103342.13;5077172;27;45384;-55
2022/03/18 09:22:54;;;;;;;;;9.00;6.00;;;;;19.18;33.36;103349.09;5079985;27;45505;-56
2022/03/18 09:25:20;;;;;;;;;8.00;6.00;;;;;19.16;33.22;103339.47;5079179;27;45275;-57
2022/03/18 09:27:45;;;;;;;;;5.00;3.75;;;;;19.19;32.94;103345.59;5079232;27;45248;-56
2022/03/18 09:30:12;;;;;;;;;7.75;6.25;;;;;19.21;33.22;103349.09;5079325;27;45347;-54
2022/03/18 09:32:40;;;;;;;;;7.75;4.75;;;;;19.21;33.30;103343.81;5079462;27;45408;-55
2022/03/18 09:35:07;;;;;;;;;6.50;6.50;;;;;19.23;33.27;103349.94;5079130;27;45406;-59
2022/03/18 09:37:33;;;;;;;;;6.25;6.25;;;;;19.22;33.21;103353.47;5079144;27;45860;-59
2022/03/18 09:40:01;;;;;;;;;5.00;4.00;;;;;19.23;32.66;103350.81;5079436;27;45295;-56
2022/03/18 09:42:26;;;;;;;;;5.00;5.00;;;;;19.25;32.58;103348.16;5079883;27;45497;-53
2022/03/18 09:44:52;;;;;;;;;5.75;5.00;;;;;19.25;32.97;103345.53;5078961;27;45904;-57
2022/03/18 09:47:21;;;;;;;;;7.00;5.75;;;;;19.26;32.80;103344.63;5078909;27;45304;-52
2022/03/18 09:49:47;;;;;;;;;8.75;4.75;;;;;19.25;32.81;103343.78;5079176;27;45335;-52
2022/03/18 09:52:15;;;;;;;;;5.75;4.00;;;;;19.27;32.02;103342.00;5079244;27;45474;-53
2022/03/18 09:54:42;;;;;;;;;5.50;5.50;;;;;19.26;32.72;103352.53;5078693;27;46062;-54
2022/03/18 09:57:07;;;;;;;;;5.50;4.75;;;;;19.26;31.63;103344.63;5077495;28;45416;-51
2022/03/18 09:59:34;;;;;;;;;10.75;6.50;;;;;19.26;31.56;103348.16;5078772;27;45401;-55
2022/03/18 10:02:21;;;;;;;;;5.00;5.00;;;;;19.28;31.99;103353.38;5077868;27;45462;-54
2022/03/18 10:04:54;;;;;;;;;8.00;5.75;;;;;19.27;31.94;103349.00;5077425;28;47694;-56
2022/03/18 10:07:21;;;;;;;;;7.50;6.50;;;;;19.26;31.32;103342.00;5078555;27;45891;-55
2022/03/18 10:09:46;;;;;;;;;6.00;4.00;;;;;19.26;31.57;103345.53;5078793;27;45375;-56
2022/03/18 10:12:28;;;;;;;;;7.00;5.00;;;;;19.26;31.57;103349.91;5078942;27;45898;-57
2022/03/18 10:15:16;;;;;;;;;4.00;4.00;;;;;19.27;31.59;103341.13;5078215;27;46465;-55
2022/03/18 10:17:42;;;;;;;;;4.00;4.00;;;;;19.27;31.59;103349.00;5078517;27;45680;-53
2022/03/18 10:20:32;;;;;;;;;5.50;5.00;;;;;19.26;31.66;103344.63;5077169;27;45274;-56
2022/03/18 10:23:16;;;;;;;;;4.75;4.00;;;;;19.25;31.31;103337.63;5079036;27;45481;-54
2022/03/18 10:25:50;;;;;;;;;5.00;5.00;;;;;19.26;31.31;103336.75;5078543;27;46277;-55
2022/03/18 10:28:37;;;;;;;;;3.00;3.00;;;;;19.25;31.14;103327.13;5078490;28;45822;-56
2022/03/18 10:31:14;;;;;;;;;4.25;4.25;;;;;19.25;31.26;103328.00;5078196;27;45403;-55
2022/03/18 10:37:12;;;;;;;;;5.00;3.25;;;;;19.29;30.90;103339.34;5078274;28;45277;-53
2022/03/18 10:39:40;;;;;;;;;3.75;3.25;;;;;19.29;30.90;103324.44;5078200;27;45781;-54
2022/03/18 10:42:10;;;;;;;;;3.75;2.50;;;;;19.29;31.03;103324.44;5077003;28;45787;-55
2022/03/18 10:44:46;;;;;;;;;3.25;3.00;;;;;19.30;31.05;103320.91;5078697;27;45502;-55
2022/03/18 10:47:35;;;;;;;;;5.25;3.75;;;;;19.31;31.54;103319.19;5077994;27;46371;-55
2022/03/18 10:50:10;;;;;;;;;4.50;3.00;;;;;19.42;31.58;103322.56;5078316;27;45986;-56
2022/03/18 10:52:36;;;;;;;;;2.25;2.25;;;;;19.47;31.38;103317.25;5076735;27;45345;-55
2022/03/18 10:55:18;;;;;;;;;6.50;3.00;;;;;19.54;31.17;103320.69;5078682;27;45581;-53
2022/03/18 10:58:10;;;;;;;;;5.00;2.00;;;;;19.62;31.55;103317.06;5077799;27;46682;-53
2022/03/18 11:00:38;;;;;;;;;1.75;1.75;;;;;19.67;31.11;103324.91;5077813;28;45728;-53
2022/03/18 11:03:04;;;;;;;;;5.00;3.75;;;;;19.75;31.48;103316.91;5078304;27;45408;-55
2022/03/18 11:05:35;;;;;;;;;2.50;2.00;;;;;19.80;31.21;103315.09;5078446;27;45476;-56
2022/03/18 11:08:10;;;;;;;;;3.00;2.00;;;;;19.86;30.97;103319.44;5076867;28;45285;-55
2022/03/18 11:13:28;;;;;;;;;5.50;2.00;;;;;19.98;30.96;103307.88;5077945;28;45432;-53
2022/03/18 11:15:55;;;;;;;;;4.50;2.50;;;;;20.02;31.51;103309.59;5077852;27;45345;-54
2022/03/18 11:18:21;;;;;;;;;0.00;0.00;;;;;20.07;31.12;103313.00;5077824;27;46182;-55
2022/03/18 11:20:50;;;;;;;;;2.75;2.75;;;;;20.10;31.27;103307.69;5077507;27;45432;-53
2022/03/18 11:23:22;;;;;;;;;3.25;3.25;;;;;20.15;31.21;103310.28;5077564;27;45372;-54
2022/03/18 11:25:55;;;;;;;;;2.50;2.50;;;;;20.18;30.93;103305.81;5077793;27;45362;-57
2022/03/18 11:28:21;;;;;;;;;2.00;2.00;;;;;20.22;30.98;103301.41;5077497;27;45298;-54
2022/03/18 11:30:48;;;;;;;;;3.00;2.00;;;;;20.24;30.87;103299.59;5076150;27;45442;-53
2022/03/18 11:33:13;;;;;;;;;2.25;2.25;;;;;20.28;31.50;103300.44;5077583;27;45452;-52
2022/03/18 11:35:48;;;;;;;;;4.00;2.50;;;;;20.30;30.92;103304.78;5077723;27;45504;-53
2022/03/18 11:38:47;;;;;;;;;2.00;2.00;;;;;20.31;30.83;103301.25;5077253;27;47190;-54
2022/03/18 11:41:14;;;;;;;;;2.00;2.00;;;;;20.32;31.10;103303.00;5077382;27;45730;-55
2022/03/18 11:43:39;;;;;;;;;3.25;2.25;;;;;20.33;30.79;103296.84;5076356;27;45399;-54